createdAt,value
2018-10-05T00:01:25.655Z,80.88
2018-10-05T00:03:53.796Z,81.20
2018-10-05T00:06:21.995Z,81.61
2018-10-05T00:08:50.207Z,81.63
2018-10-05T00:11:18.293Z,82.35
2018-10-05T00:13:46.487Z,82.15
2018-10-05T00:16:14.658Z,81.63
2018-10-05T00:18:42.818Z,82.45
2018-10-05T00:21:10.939Z,82.39
2018-10-05T00:23:39.182Z,82.15
2018-10-05T00:26:07.336Z,82.16
2018-10-05T00:28:35.519Z,81.69
2018-10-05T00:31:03.688Z,81.99
2018-10-05T00:33:31.892Z,82.07
2018-10-05T00:36:00.263Z,82.14
2018-10-05T00:38:28.388Z,82.01
2018-10-05T00:40:58.787Z,82.46
2018-10-05T00:43:27.213Z,83.41
2018-10-05T00:45:55.370Z,83.57
2018-10-05T00:48:23.773Z,82.92
2018-10-05T00:50:51.885Z,83.82
2018-10-05T00:53:20.097Z,83.06
2018-10-05T00:55:48.321Z,82.64
2018-10-05T00:58:16.517Z,83.41
2018-10-05T01:00:44.719Z,83.62
2018-10-05T01:03:12.876Z,84.03
2018-10-05T01:05:41.147Z,83.29
2018-10-05T01:08:09.242Z,82.86
2018-10-05T01:10:37.358Z,83.44
2018-10-05T01:13:05.664Z,83.49
2018-10-05T01:15:34.036Z,83.92
2018-10-05T01:18:02.192Z,83.63
2018-10-05T01:20:30.362Z,84.75
2018-10-05T01:22:58.548Z,84.58
2018-10-05T01:25:26.715Z,84.24
2018-10-05T01:27:54.862Z,84.16
2018-10-05T01:30:23.004Z,84.60
2018-10-05T01:32:51.194Z,83.99
2018-10-05T01:35:19.335Z,84.65
2018-10-05T01:37:47.444Z,84.76
2018-10-05T01:40:15.560Z,85.63
2018-10-05T01:42:43.704Z,85.72
2018-10-05T01:45:11.848Z,85.40
2018-10-05T01:47:40.035Z,86.66
2018-10-05T01:50:08.226Z,86.17
2018-10-05T01:52:36.403Z,86.58
2018-10-05T01:55:04.594Z,85.71
2018-10-05T01:57:32.751Z,86.09
2018-10-05T02:00:00.954Z,85.78
2018-10-05T02:02:29.090Z,86.25
2018-10-05T02:04:57.178Z,86.73
2018-10-05T02:07:25.473Z,86.72
2018-10-05T02:09:53.576Z,86.75
2018-10-05T02:12:21.724Z,87.57
2018-10-05T02:14:49.881Z,87.13
2018-10-05T02:17:18.104Z,87.29
2018-10-05T02:19:47.069Z,87.25
2018-10-05T02:22:15.229Z,88.25
2018-10-05T02:24:43.327Z,88.01
2018-10-05T02:27:11.505Z,88.08
2018-10-05T02:29:39.591Z,87.89
2018-10-05T02:32:07.740Z,87.80
2018-10-05T02:34:35.852Z,86.75
2018-10-05T02:37:03.940Z,88.19
2018-10-05T02:39:32.156Z,87.09
2018-10-05T02:42:00.224Z,87.74
2018-10-05T02:44:28.332Z,87.92
2018-10-05T02:46:56.480Z,88.51
2018-10-05T02:49:24.623Z,87.68
2018-10-05T02:51:53.787Z,89.01
2018-10-05T02:54:21.905Z,88.84
2018-10-05T02:56:50.129Z,89.42
2018-10-05T02:59:18.257Z,88.87
2018-10-05T03:01:57.542Z,89.17
2018-10-05T03:04:25.791Z,90.16
2018-10-05T03:06:53.847Z,89.36
2018-10-05T03:09:21.995Z,88.75
2018-10-05T03:11:50.193Z,88.93
2018-10-05T03:14:18.340Z,89.01
2018-10-05T03:16:46.445Z,89.22
2018-10-05T03:19:14.687Z,89.73
2018-10-05T03:21:42.963Z,89.49
2018-10-05T03:24:12.262Z,89.04
2018-10-05T03:26:40.619Z,89.14
2018-10-05T03:29:08.773Z,88.92
2018-10-05T03:31:37.066Z,89.07
2018-10-05T03:34:05.316Z,89.78
2018-10-05T03:36:33.497Z,90.05
2018-10-05T03:39:01.736Z,90.77
2018-10-05T03:41:29.940Z,90.30
2018-10-05T03:43:58.087Z,90.74
2018-10-05T03:46:26.289Z,90.92
2018-10-05T03:48:54.460Z,90.67
2018-10-05T03:51:22.709Z,90.99
2018-10-05T03:53:50.935Z,91.23
2018-10-05T03:56:19.117Z,91.31
2018-10-05T03:58:47.293Z,91.34
2018-10-05T04:01:15.574Z,91.01
2018-10-05T04:03:44.097Z,90.77
2018-10-05T04:06:12.352Z,90.43
2018-10-05T04:08:40.651Z,91.79
2018-10-05T04:11:08.748Z,91.79
2018-10-05T04:13:36.987Z,91.17
2018-10-05T04:16:05.149Z,89.71
2018-10-05T04:18:33.307Z,90.23
2018-10-05T04:21:01.902Z,90.48
2018-10-05T04:23:30.217Z,91.13
2018-10-05T04:25:58.414Z,90.44
2018-10-05T04:28:26.634Z,90.07
2018-10-05T04:30:54.877Z,90.58
2018-10-05T04:33:23.043Z,90.94
2018-10-05T04:35:51.393Z,92.06
2018-10-05T04:38:19.535Z,91.83
2018-10-05T04:40:47.771Z,91.32
2018-10-05T04:43:16.140Z,90.89
2018-10-05T04:45:44.356Z,91.31
2018-10-05T04:48:12.505Z,90.90
2018-10-05T04:50:40.813Z,90.92
2018-10-05T04:53:09.249Z,91.00
2018-10-05T04:55:37.489Z,92.32
2018-10-05T04:58:05.670Z,92.27
2018-10-05T05:00:33.991Z,91.99
2018-10-05T05:03:02.310Z,92.40
2018-10-05T05:05:30.894Z,91.76
2018-10-05T05:07:59.100Z,91.80
2018-10-05T05:10:27.390Z,92.14
2018-10-05T05:12:55.565Z,91.84
2018-10-05T05:15:24.254Z,92.03
2018-10-05T05:17:52.376Z,92.08
2018-10-05T05:20:20.524Z,92.27
2018-10-05T05:22:48.745Z,90.82
2018-10-05T05:25:16.803Z,88.22
2018-10-05T05:27:45.117Z,84.14
2018-10-05T05:30:13.555Z,80.61
2018-10-05T05:32:41.675Z,80.87
2018-10-05T05:35:09.756Z,79.74
2018-10-05T05:37:38.388Z,77.04
2018-10-05T05:40:07.015Z,75.71
2018-10-05T05:42:35.204Z,75.20
2018-10-05T05:45:03.535Z,76.03
2018-10-05T05:47:31.806Z,76.61
2018-10-05T05:50:00.054Z,77.08
2018-10-05T05:52:29.634Z,76.95
2018-10-05T05:54:58.759Z,76.17
2018-10-05T05:57:27.532Z,77.07
2018-10-05T05:59:55.700Z,77.26
2018-10-05T06:02:23.815Z,77.58
2018-10-05T06:04:52.078Z,77.53
2018-10-05T06:07:20.447Z,77.42
2018-10-05T06:09:48.751Z,76.99
2018-10-05T06:12:16.888Z,77.20
2018-10-05T06:14:45.048Z,76.65
2018-10-05T06:17:13.230Z,75.07
2018-10-05T06:19:41.578Z,76.69
2018-10-05T06:22:09.854Z,74.84
2018-10-05T06:24:37.991Z,74.52
2018-10-05T06:27:06.694Z,72.21
2018-10-05T06:29:34.923Z,72.28
2018-10-05T06:32:03.025Z,70.95
2018-10-05T06:34:31.210Z,70.44
2018-10-05T06:36:59.506Z,70.52
2018-10-05T06:39:27.722Z,67.53
2018-10-05T06:41:56.082Z,67.85
2018-10-05T06:44:24.504Z,66.49
2018-10-05T06:46:52.640Z,68.24
2018-10-05T06:49:21.144Z,65.20
2018-10-05T06:51:49.599Z,64.85
2018-10-05T06:54:17.687Z,63.58
2018-10-05T06:56:45.827Z,63.63
2018-10-05T06:59:14.197Z,61.85
2018-10-05T07:01:42.587Z,61.40
2018-10-05T07:04:10.949Z,62.25
2018-10-05T07:06:39.728Z,62.28
2018-10-05T07:09:08.454Z,59.99
2018-10-05T07:11:36.810Z,59.45
2018-10-05T07:14:04.959Z,59.06
2018-10-05T07:16:33.717Z,59.19
2018-10-05T07:19:02.030Z,60.26
2018-10-05T07:21:30.636Z,58.34
2018-10-05T07:23:59.021Z,58.91
2018-10-05T07:26:28.156Z,57.78
2018-10-05T07:28:56.454Z,58.07
2018-10-05T07:31:25.875Z,56.28
2018-10-05T07:33:54.228Z,56.26
2018-10-05T07:36:22.703Z,56.50
2018-10-05T07:38:51.321Z,54.47
2018-10-05T07:41:19.832Z,54.08
2018-10-05T07:43:48.360Z,54.54
2018-10-05T07:46:16.964Z,55.21
2018-10-05T07:48:45.196Z,54.73
2018-10-05T07:51:13.400Z,54.50
2018-10-05T07:53:41.690Z,54.03
2018-10-05T07:56:09.887Z,53.09
2018-10-05T07:58:38.204Z,53.07
2018-10-05T08:01:06.407Z,55.13
2018-10-05T08:03:34.703Z,52.29
2018-10-05T08:06:03.010Z,52.34
2018-10-05T08:08:31.364Z,52.84
2018-10-05T08:10:59.701Z,51.86
2018-10-05T08:13:28.267Z,51.81
2018-10-05T08:15:56.689Z,50.77
2018-10-05T08:18:24.883Z,52.52
2018-10-05T08:20:53.148Z,50.60
2018-10-05T08:23:21.464Z,48.55
2018-10-05T08:25:49.775Z,48.64
2018-10-05T08:28:18.029Z,47.88
2018-10-05T08:30:46.401Z,49.26
2018-10-05T08:33:14.615Z,49.10
2018-10-05T08:35:42.824Z,46.95
2018-10-05T08:38:11.032Z,47.79
2018-10-05T08:40:39.259Z,47.82
2018-10-05T08:43:07.570Z,47.54
2018-10-05T08:45:35.878Z,47.41
2018-10-05T08:48:04.301Z,48.10
2018-10-05T08:50:32.598Z,48.13
2018-10-05T08:53:00.869Z,44.60
2018-10-05T08:55:29.198Z,45.22
2018-10-05T08:57:57.585Z,45.40
2018-10-05T09:00:25.910Z,43.79
2018-10-05T09:02:54.335Z,44.46
2018-10-05T09:05:22.948Z,45.50
2018-10-05T09:07:51.306Z,45.14
2018-10-05T09:10:19.428Z,44.21
2018-10-05T09:12:47.575Z,45.38
2018-10-05T09:15:15.803Z,44.41
2018-10-05T09:17:43.962Z,47.30
2018-10-05T09:20:12.102Z,51.51
2018-10-05T09:22:40.446Z,50.99
2018-10-05T09:25:08.537Z,46.65
2018-10-05T09:27:36.848Z,47.64
2018-10-05T09:30:05.045Z,48.63
2018-10-05T09:32:33.312Z,46.54
2018-10-05T09:35:01.556Z,46.87
2018-10-05T09:37:29.813Z,46.09
2018-10-05T09:39:57.950Z,45.55
2018-10-05T09:42:26.129Z,45.59
2018-10-05T09:44:54.285Z,45.23
2018-10-05T09:47:22.770Z,46.16
2018-10-05T09:49:50.947Z,45.41
2018-10-05T09:52:19.237Z,45.67
2018-10-05T09:54:47.426Z,45.22
2018-10-05T09:57:15.625Z,45.48
2018-10-05T09:59:44.041Z,46.14
2018-10-05T10:02:13.489Z,46.61
2018-10-05T10:04:41.770Z,45.14
2018-10-05T10:07:10.147Z,45.92
2018-10-05T10:09:38.380Z,45.23
2018-10-05T10:12:06.553Z,44.88
2018-10-05T10:14:34.658Z,45.48
2018-10-05T10:17:02.783Z,46.76
2018-10-05T10:19:31.302Z,45.02
2018-10-05T10:21:59.531Z,45.56
2018-10-05T10:24:27.810Z,45.14
2018-10-05T10:26:56.289Z,45.16
2018-10-05T10:29:24.591Z,44.08
2018-10-05T10:31:53.047Z,44.39
2018-10-05T10:34:21.459Z,45.11
2018-10-05T10:36:50.032Z,44.98
2018-10-05T10:39:18.416Z,43.84
2018-10-05T10:41:46.871Z,44.66
2018-10-05T10:44:15.260Z,43.56
2018-10-05T10:46:43.930Z,44.46
2018-10-05T10:49:12.804Z,44.24
2018-10-05T10:51:41.237Z,43.59
2018-10-05T10:54:09.487Z,44.02
2018-10-05T10:56:37.649Z,44.18
2018-10-05T10:59:05.950Z,43.98
2018-10-05T11:01:34.002Z,44.51
2018-10-05T11:04:02.627Z,43.90
2018-10-05T11:06:30.826Z,44.10
2018-10-05T11:08:59.064Z,44.19
2018-10-05T11:11:27.239Z,43.58
2018-10-05T11:13:55.417Z,44.48
2018-10-05T11:16:23.846Z,44.50
2018-10-05T11:18:52.365Z,44.28
2018-10-05T11:21:20.806Z,42.83
2018-10-05T11:23:49.116Z,42.94
2018-10-05T11:26:17.241Z,42.99
2018-10-05T11:28:45.392Z,42.66
2018-10-05T11:31:13.683Z,43.28
2018-10-05T11:33:42.353Z,42.96
2018-10-05T11:36:10.744Z,42.86
2018-10-05T11:38:38.966Z,42.71
2018-10-05T11:41:07.426Z,42.61
2018-10-05T11:43:35.649Z,42.24
2018-10-05T11:46:04.310Z,42.04
2018-10-05T11:48:32.818Z,43.04
2018-10-05T11:51:01.338Z,42.33
2018-10-05T11:53:29.653Z,42.05
2018-10-05T11:55:57.947Z,42.74
2018-10-05T11:58:26.198Z,42.62
2018-10-05T12:00:54.250Z,43.31
2018-10-05T12:03:22.735Z,42.33
2018-10-05T12:05:51.042Z,41.54
2018-10-05T12:08:19.521Z,41.80
2018-10-05T12:10:47.891Z,41.91
2018-10-05T12:13:16.184Z,42.00
2018-10-05T12:15:44.497Z,42.03
2018-10-05T12:18:13.232Z,41.90
2018-10-05T12:20:41.584Z,41.83
2018-10-05T12:23:09.838Z,42.08
2018-10-05T12:25:38.164Z,41.33
2018-10-05T12:28:06.687Z,41.56
2018-10-05T12:30:35.229Z,41.48
2018-10-05T12:33:04.239Z,41.73
2018-10-05T12:35:33.075Z,41.74
2018-10-05T12:38:01.443Z,41.23
2018-10-05T12:40:29.761Z,41.13
2018-10-05T12:42:57.969Z,41.81
2018-10-05T12:45:26.550Z,40.71
2018-10-05T12:47:54.863Z,41.61
2018-10-05T12:50:26.352Z,41.73
2018-10-05T12:52:55.122Z,40.84
2018-10-05T12:55:23.474Z,41.91
2018-10-05T12:57:51.832Z,42.40
2018-10-05T13:00:20.263Z,41.41
2018-10-05T13:02:48.709Z,41.43
2018-10-05T13:05:16.861Z,39.97
2018-10-05T13:07:45.665Z,40.79
2018-10-05T13:10:14.710Z,42.60
2018-10-05T13:12:43.579Z,41.00
2018-10-05T13:15:12.055Z,41.67
2018-10-05T13:17:40.970Z,40.70
2018-10-05T13:20:09.524Z,42.31
2018-10-05T13:22:38.074Z,41.45
2018-10-05T13:25:07.037Z,42.18
2018-10-05T13:27:35.454Z,44.13
2018-10-05T13:30:03.944Z,43.07
2018-10-05T13:32:32.297Z,41.43
2018-10-05T13:35:00.752Z,41.76
2018-10-05T13:37:29.381Z,41.83
2018-10-05T13:39:57.987Z,44.82
2018-10-05T13:42:26.844Z,43.44
2018-10-05T13:44:55.305Z,44.29
2018-10-05T13:47:23.841Z,43.54
2018-10-05T13:49:52.594Z,42.65
2018-10-05T13:52:34.285Z,41.71
2018-10-05T13:55:04.649Z,41.88
2018-10-05T13:57:33.733Z,43.76
2018-10-05T14:00:02.173Z,42.77
2018-10-05T14:02:31.058Z,42.42
2018-10-05T14:05:00.795Z,42.70
2018-10-05T14:07:29.236Z,43.79
2018-10-05T14:10:05.364Z,45.54
2018-10-05T14:12:33.973Z,45.25
2018-10-05T14:15:02.547Z,43.00
2018-10-05T14:17:31.225Z,45.54
2018-10-05T14:20:01.664Z,45.13
2018-10-05T14:22:44.148Z,45.33
2018-10-05T14:25:29.142Z,46.26
2018-10-05T14:27:58.445Z,47.36
2018-10-05T14:30:26.804Z,48.77
2018-10-05T14:32:55.135Z,49.37
2018-10-05T14:35:23.695Z,47.72
2018-10-05T14:37:51.988Z,48.93
2018-10-05T14:40:20.126Z,48.66
2018-10-05T14:42:48.199Z,49.11
2018-10-05T14:45:16.472Z,50.03
2018-10-05T14:47:44.575Z,50.22
2018-10-05T14:50:13.421Z,50.56
2018-10-05T14:52:41.994Z,51.08
2018-10-05T14:55:10.532Z,52.21
2018-10-05T14:57:38.926Z,53.09
2018-10-05T15:00:07.442Z,52.54
2018-10-05T15:02:35.870Z,52.89
2018-10-05T15:05:04.348Z,53.50
2018-10-05T15:07:32.852Z,54.07
2018-10-05T15:10:01.278Z,53.93
2018-10-05T15:12:32.829Z,54.95
2018-10-05T15:15:01.746Z,54.38
2018-10-05T15:17:30.348Z,56.88
2018-10-05T15:19:58.728Z,57.78
2018-10-05T15:22:27.050Z,51.47
2018-10-05T15:24:55.411Z,54.04
2018-10-05T15:27:24.890Z,53.12
2018-10-05T15:29:53.329Z,51.69
2018-10-05T15:32:21.735Z,50.86
2018-10-05T15:34:50.419Z,51.51
2018-10-05T15:37:18.708Z,49.54
2018-10-05T15:39:47.094Z,49.63
2018-10-05T15:42:15.552Z,48.21
2018-10-05T15:44:44.146Z,49.76
2018-10-05T15:47:15.023Z,48.61
2018-10-05T15:49:44.577Z,48.95
2018-10-05T15:52:13.106Z,49.47
2018-10-05T15:54:41.381Z,48.50
2018-10-05T15:57:09.890Z,49.15
2018-10-05T15:59:38.770Z,49.17
2018-10-05T16:02:07.298Z,49.75
2018-10-05T16:04:35.616Z,48.69
2018-10-05T16:07:04.359Z,48.86
2018-10-05T16:09:32.838Z,49.67
2018-10-05T16:12:01.373Z,48.98
2018-10-05T16:14:30.397Z,50.41
2018-10-05T16:16:59.515Z,50.81
2018-10-05T16:19:31.044Z,50.67
2018-10-05T16:22:02.232Z,51.77
2018-10-05T16:24:38.185Z,51.23
2018-10-05T16:27:09.709Z,51.20
2018-10-05T16:29:38.985Z,50.82
2018-10-05T16:32:10.019Z,51.34
2018-10-05T16:34:42.070Z,51.55
2018-10-05T16:37:10.655Z,50.99
2018-10-05T16:39:39.055Z,50.72
2018-10-05T16:42:07.125Z,52.13
2018-10-05T16:44:35.782Z,50.77
2018-10-05T16:47:04.063Z,51.60
2018-10-05T16:49:32.551Z,51.76
2018-10-05T16:52:00.812Z,52.83
2018-10-05T16:54:30.114Z,52.60
2018-10-05T16:56:58.851Z,53.90
2018-10-05T16:59:27.145Z,55.35
2018-10-05T17:01:55.269Z,55.84
2018-10-05T17:04:23.496Z,55.37
2018-10-05T17:06:51.815Z,58.14
2018-10-05T17:09:20.006Z,58.64
2018-10-05T17:11:48.191Z,58.11
2018-10-05T17:14:16.360Z,58.92
2018-10-05T17:16:44.594Z,60.23
2018-10-05T17:19:12.795Z,57.74
2018-10-05T17:21:41.015Z,60.21
2018-10-05T17:24:09.382Z,59.66
2018-10-05T17:26:37.572Z,60.34
2018-10-05T17:29:05.806Z,60.16
2018-10-05T17:31:33.923Z,59.38
2018-10-05T17:34:02.151Z,59.19
2018-10-05T17:36:30.341Z,59.29
2018-10-05T17:38:58.708Z,57.19
2018-10-05T17:41:26.885Z,57.84
2018-10-05T17:43:55.051Z,57.93
2018-10-05T17:46:23.316Z,60.35
2018-10-05T17:48:51.934Z,59.39
2018-10-05T17:51:20.142Z,58.79
2018-10-05T17:53:48.341Z,59.99
2018-10-05T17:56:16.773Z,60.30
2018-10-05T17:58:44.972Z,62.39
2018-10-05T18:01:13.489Z,62.36
2018-10-05T18:03:41.762Z,64.24
2018-10-05T18:06:10.080Z,64.42
2018-10-05T18:08:38.341Z,64.86
2018-10-05T18:11:06.956Z,66.49
2018-10-05T18:13:35.153Z,64.08
2018-10-05T18:16:04.419Z,64.58
2018-10-05T18:18:32.836Z,65.31
2018-10-05T18:21:00.989Z,65.84
2018-10-05T18:23:29.489Z,66.28
2018-10-05T18:25:57.837Z,67.17
2018-10-05T18:28:26.298Z,67.42
2018-10-05T18:30:54.908Z,67.86
2018-10-05T18:33:23.297Z,68.19
2018-10-05T18:35:51.526Z,68.65
2018-10-05T18:38:19.756Z,67.15
2018-10-05T18:40:48.116Z,68.84
2018-10-05T18:43:16.344Z,70.44
2018-10-05T18:45:44.823Z,69.57
2018-10-05T18:48:13.080Z,68.79
2018-10-05T18:50:41.323Z,70.57
2018-10-05T18:53:09.552Z,71.05
2018-10-05T18:55:37.763Z,71.05
2018-10-05T18:58:06.241Z,71.72
2018-10-05T19:00:34.885Z,73.03
2018-10-05T19:03:03.408Z,72.19
2018-10-05T19:05:31.806Z,72.54
2018-10-05T19:08:00.450Z,72.51
2018-10-05T19:10:29.111Z,72.00
2018-10-05T19:12:57.506Z,72.72
2018-10-05T19:15:25.726Z,73.41
2018-10-05T19:17:54.960Z,72.46
2018-10-05T19:20:23.990Z,73.71
2018-10-05T19:22:52.239Z,74.02
2018-10-05T19:25:20.558Z,74.03
2018-10-05T19:27:48.753Z,75.32
2018-10-05T19:30:17.025Z,74.72
2018-10-05T19:32:45.276Z,74.26
2018-10-05T19:35:13.551Z,75.03
2018-10-05T19:37:42.460Z,74.96
2018-10-05T19:40:10.993Z,74.58
2018-10-05T19:42:39.250Z,75.80
2018-10-05T19:45:08.255Z,75.56
2018-10-05T19:47:36.547Z,75.34
2018-10-05T19:50:05.054Z,74.77
2018-10-05T19:52:33.181Z,74.75
2018-10-05T19:55:01.539Z,74.05
2018-10-05T19:57:29.692Z,75.65
2018-10-05T19:59:58.728Z,75.56
2018-10-05T20:02:27.515Z,75.22
2018-10-05T20:04:56.228Z,75.52
2018-10-05T20:07:24.727Z,75.83
2018-10-05T20:09:53.115Z,75.84
2018-10-05T20:12:21.318Z,75.80
2018-10-05T20:14:49.703Z,75.85
2018-10-05T20:17:18.914Z,76.04
2018-10-05T20:19:47.164Z,76.82
2018-10-05T20:22:15.454Z,76.83
2018-10-05T20:24:44.411Z,76.21
2018-10-05T20:27:13.168Z,76.92
2018-10-05T20:29:41.303Z,77.18
2018-10-05T20:32:09.565Z,76.84
2018-10-05T20:34:37.754Z,76.48
2018-10-05T20:37:06.560Z,76.93
2018-10-05T20:39:34.733Z,76.47
2018-10-05T20:42:02.966Z,77.87
2018-10-05T20:44:31.239Z,76.98
2018-10-05T20:46:59.515Z,77.84
2018-10-05T20:49:27.828Z,78.08
2018-10-05T20:51:56.048Z,78.78
2018-10-05T20:54:24.233Z,78.58
2018-10-05T20:56:52.599Z,78.72
2018-10-05T20:59:20.740Z,77.57
2018-10-05T21:01:49.016Z,78.24
2018-10-05T21:04:17.398Z,78.56
2018-10-05T21:06:45.671Z,79.28
2018-10-05T21:09:14.119Z,79.34
2018-10-05T21:11:42.353Z,79.65
2018-10-05T21:14:12.130Z,78.90
2018-10-05T21:16:40.812Z,78.37
2018-10-05T21:19:10.300Z,78.25
2018-10-05T21:21:38.524Z,78.75
2018-10-05T21:24:06.753Z,78.67
2018-10-05T21:26:38.207Z,79.04
2018-10-05T21:29:08.471Z,79.30
2018-10-05T21:31:37.378Z,79.26
2018-10-05T21:34:05.644Z,78.96
2018-10-05T21:36:34.483Z,79.13
2018-10-05T21:39:08.443Z,79.37
2018-10-05T21:41:36.913Z,78.90
2018-10-05T21:44:05.297Z,78.85
2018-10-05T21:46:34.265Z,80.57
2018-10-05T21:49:02.469Z,79.75
2018-10-05T21:51:30.652Z,79.22
2018-10-05T21:53:58.811Z,79.89
2018-10-05T21:56:26.947Z,80.72
2018-10-05T21:58:55.304Z,79.35
2018-10-05T22:01:23.529Z,80.12
2018-10-05T22:03:51.852Z,79.92
2018-10-05T22:06:20.186Z,80.00
2018-10-05T22:08:48.614Z,80.32
2018-10-05T22:11:16.952Z,79.79
2018-10-05T22:13:45.381Z,80.58
2018-10-05T22:16:13.633Z,80.11
2018-10-05T22:18:41.857Z,80.28
2018-10-05T22:21:10.809Z,80.48
2018-10-05T22:23:39.150Z,80.19
2018-10-05T22:26:07.426Z,80.74
2018-10-05T22:28:35.651Z,81.21
2018-10-05T22:31:03.953Z,81.27
2018-10-05T22:33:32.287Z,81.62
2018-10-05T22:36:00.739Z,81.77
2018-10-05T22:38:28.930Z,82.32
2018-10-05T22:40:57.158Z,82.34
2018-10-05T22:43:25.400Z,81.98
2018-10-05T22:45:53.637Z,82.65
2018-10-05T22:48:21.811Z,81.47
2018-10-05T22:50:52.493Z,82.47
2018-10-05T22:53:22.039Z,82.58
2018-10-05T22:55:52.260Z,82.52
2018-10-05T22:58:20.732Z,80.94
2018-10-05T23:00:49.058Z,81.04
2018-10-05T23:03:17.486Z,81.75
2018-10-05T23:05:45.899Z,81.38
2018-10-05T23:08:15.768Z,81.86
2018-10-05T23:10:43.881Z,81.98
2018-10-05T23:13:11.970Z,81.23
2018-10-05T23:15:41.188Z,82.13
2018-10-05T23:18:09.327Z,81.43
2018-10-05T23:20:38.037Z,80.84
2018-10-05T23:23:06.666Z,82.34
2018-10-05T23:25:34.850Z,82.19
2018-10-05T23:28:03.068Z,81.27
2018-10-05T23:30:31.253Z,81.75
2018-10-05T23:32:59.467Z,81.62
2018-10-05T23:35:27.607Z,81.31
2018-10-05T23:37:55.710Z,82.16
2018-10-05T23:40:24.689Z,82.27
2018-10-05T23:42:52.886Z,81.64
2018-10-05T23:45:21.079Z,82.38
2018-10-05T23:47:49.269Z,82.57
2018-10-05T23:50:17.656Z,82.73
2018-10-05T23:52:49.002Z,83.08
2018-10-05T23:55:17.343Z,82.82
2018-10-05T23:57:46.038Z,82.77
